Pituffik, Greenland

2:07 AM AST on February 01, 2015 (GMT -0400)
Thule Air Base | Change Station
CLOSE
Current Station
Airport
Location: Pituffik,
Elevation: 253 ft
Nearby Weather Stations

Elev 253 ft 76.53 °N, 68.75 °W | Updated 9 minutes ago

Clear
Clear
-24 °F
Feels Like -38 °F
N
5
Wind Variable Wind from East

Today
High -- | Low -- °F
--% Chance of Precip.
Yesterday
High -- | Low -- °F
Precip. -- in
8:00 PM 8:00 PM
Waxing Gibbous, 93% visible
Pressure 29.79 in
Visibility 6.2 miles
Clouds Clear
Windchill -38 °F
Dew Point -29 °F
Humidity 76%
Rainfall 0.00 in
Snow Depth Not available.
UV 0 out of 12
Pollen Not available.
Air Quality Not available.
Flu Activity Not available.
METAR BGTL 010558Z AUTO 10004KT 9999 CLR M31/M34 A2980 RMK AO2 SLP087 53014

More Conditions Fewer Conditions

Pressure 29.79 in
Visibility 6.2 miles
Clouds Clear
Windchill -38 °F
Dew Point -29 °F
Humidity 76%
Rainfall 0.00 in
Snow Depth Not available.
UV 0 out of 12
Pollen Not available.
Air Quality Not available.
Flu Activity Not available.
METAR BGTL 010558Z AUTO 10004KT 9999 CLR M31/M34 A2980 RMK AO2 SLP087 53014

More Conditions Fewer Conditions

10-Day Weather Forecast

Almanac

Astronomy

Feb. 01, 2015 Rise Set
Actual Time
Civil Twilight
Nautical Twilight
Astronomical Twilight
Moon
Length of Visible Light
Length of Day
Tomorrow will be .
, % of the Moon is Illuminated

Today's Extremes

Country Highs Country Lows

Community

WunderPhotos

Upload Photos

1,792,320 photos uploaded!

WunderBlogs® & News

Nearby

Air Quality

  Air Quality AQ Index Pollutant
Not available.

Snow Depth

Station Depth Elevation

Earthquake Activity

City Distance Mag. Time & Date
Minimum magnitude displayed is 2.5.

Coastal Water Temperatures

Place Temperature

Nearby Weather Stations